Time;durP1;ratioP1;P1;durP2;ratioP2;P2;SDS_P1;SDS_P2;PMS_P1;PMS_P2;Temp;Humidity;BMP_temperature;BMP_pressure;BME280_temperature;BME280_humidity;BME280_pressure;Samples;Min_cycle;Max_cycle;Signal;HPM_P1;HPM_P2
2023/03/13 00:02:20;;;;;;;23.00;6.13;;;6.60;99.90;;;;;;5078903;28;20508;-73
2023/03/13 00:04:46;;;;;;;34.53;6.07;;;6.60;99.90;;;;;;5073021;28;21004;-73
2023/03/13 00:07:13;;;;;;;20.27;5.70;;;6.60;99.90;;;;;;5071691;28;20506;-73
2023/03/13 00:09:40;;;;;;;27.77;7.00;;;6.60;99.90;;;;;;5075470;28;20509;-73
2023/03/13 00:12:07;;;;;;;24.40;5.50;;;6.70;99.90;;;;;;5071756;28;20450;-73
2023/03/13 00:14:34;;;;;;;17.70;5.67;;;6.70;99.90;;;;;;5071543;28;20883;-73
2023/03/13 00:17:01;;;;;;;22.97;5.43;;;6.80;99.90;;;;;;5071058;28;20450;-73
2023/03/13 00:19:29;;;;;;;29.53;5.90;;;6.80;99.90;;;;;;5071740;28;20488;-73
2023/03/13 00:21:56;;;;;;;30.60;6.97;;;6.80;99.90;;;;;;5081153;28;20490;-73
2023/03/13 00:24:22;;;;;;;28.87;5.47;;;6.80;99.90;;;;;;5083045;28;20526;-73
2023/03/13 00:26:49;;;;;;;22.10;5.60;;;6.80;99.90;;;;;;5071708;28;20506;-73
2023/03/13 00:29:16;;;;;;;31.70;6.37;;;6.90;99.90;;;;;;5070730;28;20460;-73
2023/03/13 00:31:42;;;;;;;33.17;6.33;;;6.90;99.90;;;;;;5070802;28;20549;-73
2023/03/13 00:34:09;;;;;;;24.50;5.33;;;6.90;99.90;;;;;;5073048;28;20472;-73
2023/03/13 00:36:37;;;;;;;25.03;5.67;;;6.80;99.90;;;;;;5076197;28;20503;-73
2023/03/13 00:39:05;;;;;;;21.13;6.10;;;6.80;99.90;;;;;;5071557;28;20467;-73
2023/03/13 00:41:33;;;;;;;17.97;5.13;;;6.70;99.90;;;;;;5071003;28;20503;-73
2023/03/13 00:44:00;;;;;;;19.10;5.03;;;6.70;99.90;;;;;;5070957;28;20472;-73
2023/03/13 00:46:29;;;;;;;33.17;5.30;;;6.70;99.90;;;;;;5085847;28;20457;-73
2023/03/13 00:48:56;;;;;;;20.77;5.50;;;6.80;99.90;;;;;;5070547;28;20455;-73
2023/03/13 00:51:25;;;;;;;16.33;4.87;;;6.80;99.90;;;;;;5070551;28;20484;-73
2023/03/13 00:53:54;;;;;;;19.70;4.57;;;6.80;99.90;;;;;;5070849;28;20477;-73
2023/03/13 00:56:21;;;;;;;13.87;5.20;;;6.80;99.90;;;;;;5072527;28;20509;-73
2023/03/13 00:58:50;;;;;;;21.17;5.33;;;6.90;99.90;;;;;;5070613;28;20454;-73
2023/03/13 01:01:18;;;;;;;37.87;5.93;;;6.90;99.90;;;;;;5072517;28;20460;-73
2023/03/13 01:03:48;;;;;;;22.00;6.17;;;6.90;99.90;;;;;;5073594;28;20843;-73
2023/03/13 01:06:17;;;;;;;29.10;5.30;;;6.90;99.90;;;;;;5070555;28;20460;-73
2023/03/13 01:08:44;;;;;;;23.37;5.97;;;6.90;99.90;;;;;;5078325;28;20472;-73
2023/03/13 01:11:13;;;;;;;25.90;5.47;;;6.90;99.90;;;;;;5078913;28;20542;-73
2023/03/13 01:13:40;;;;;;;24.10;5.13;;;6.90;99.90;;;;;;5071442;28;21047;-73
2023/03/13 01:16:09;;;;;;;25.30;5.40;;;6.90;99.90;;;;;;5070825;28;20450;-73
2023/03/13 01:18:37;;;;;;;18.60;5.00;;;6.90;99.90;;;;;;5070748;28;20451;-73
2023/03/13 01:21:05;;;;;;;26.90;5.40;;;6.90;99.90;;;;;;5071066;28;20504;-73
2023/03/13 01:23:32;;;;;;;21.63;4.90;;;6.90;99.90;;;;;;5080581;28;20471;-73
2023/03/13 01:25:59;;;;;;;32.97;6.07;;;6.90;99.90;;;;;;5070959;28;20450;-73
2023/03/13 01:28:27;;;;;;;34.80;5.00;;;6.90;99.90;;;;;;5078271;28;20450;-73
2023/03/13 01:30:54;;;;;;;15.30;4.63;;;7.00;99.90;;;;;;5070930;28;20542;-73
2023/03/13 01:33:21;;;;;;;28.33;4.70;;;6.90;99.90;;;;;;5070942;28;20448;-73
2023/03/13 01:35:48;;;;;;;28.17;6.17;;;6.90;99.90;;;;;;5077363;28;20453;-73
2023/03/13 01:38:14;;;;;;;27.43;4.97;;;7.00;99.90;;;;;;5070215;28;20513;-73
2023/03/13 01:40:42;;;;;;;20.10;4.30;;;7.00;99.90;;;;;;5074510;28;20453;-73
2023/03/13 01:43:18;;;;;;;20.63;4.70;;;7.10;99.90;;;;;;5070592;28;20456;-73
2023/03/13 01:45:59;;;;;;;19.33;4.83;;;7.10;99.90;;;;;;5083230;28;20462;-73
2023/03/13 01:48:34;;;;;;;18.87;5.43;;;7.10;99.90;;;;;;5070872;28;20517;-73
2023/03/13 01:51:04;;;;;;;24.97;4.50;;;7.10;99.90;;;;;;5069052;28;20555;-73
2023/03/13 01:53:34;;;;;;;20.77;4.77;;;7.20;99.90;;;;;;5070205;28;20465;-73
2023/03/13 01:56:05;;;;;;;19.87;4.77;;;7.10;99.90;;;;;;5070002;28;20450;-73
2023/03/13 01:58:32;;;;;;;35.07;5.67;;;7.20;99.90;;;;;;5070055;28;20929;-73
2023/03/13 02:01:00;;;;;;;34.73;5.60;;;7.10;99.90;;;;;;5070394;28;20914;-73
2023/03/13 02:03:28;;;;;;;18.50;5.57;;;7.10;99.90;;;;;;5078486;28;20532;-73
2023/03/13 02:05:56;;;;;;;18.77;4.33;;;7.10;99.90;;;;;;5069750;28;20890;-73
2023/03/13 02:08:25;;;;;;;25.00;5.10;;;7.10;99.90;;;;;;5070719;28;20448;-73
2023/03/13 02:10:58;;;;;;;23.70;5.33;;;7.10;99.90;;;;;;5076785;28;20527;-73
2023/03/13 02:13:25;;;;;;;23.63;4.30;;;7.20;99.90;;;;;;5073789;28;20459;-73
2023/03/13 02:15:52;;;;;;;13.70;4.03;;;7.20;99.90;;;;;;5071415;28;20457;-73
2023/03/13 02:18:20;;;;;;;22.10;4.73;;;7.30;99.90;;;;;;5072281;28;20460;-73
2023/03/13 02:20:50;;;;;;;19.47;5.17;;;7.50;99.90;;;;;;5074666;28;20459;-73
2023/03/13 02:23:23;;;;;;;22.30;4.43;;;7.70;99.90;;;;;;5080293;28;20452;-73
2023/03/13 02:25:53;;;;;;;18.27;4.03;;;7.90;99.90;;;;;;5076735;28;20453;-73
2023/03/13 02:28:23;;;;;;;19.47;5.30;;;8.00;99.90;;;;;;5074263;28;20451;-73
2023/03/13 02:30:53;;;;;;;16.90;4.10;;;8.20;99.90;;;;;;5072706;28;20485;-73
2023/03/13 02:33:22;;;;;;;16.50;3.83;;;8.30;99.90;;;;;;5073489;28;20544;-73
2023/03/13 02:35:49;;;;;;;19.13;4.50;;;8.30;99.90;;;;;;5080636;28;20913;-73
2023/03/13 02:38:20;;;;;;;17.93;5.30;;;8.30;99.90;;;;;;5074406;28;20511;-73
2023/03/13 02:40:48;;;;;;;12.77;4.70;;;8.30;99.90;;;;;;5073522;28;20452;-73
2023/03/13 02:43:20;;;;;;;17.97;4.93;;;8.30;99.90;;;;;;5073400;28;20457;-73
2023/03/13 02:46:01;;;;;;;27.10;5.20;;;8.30;99.90;;;;;;5079121;28;20458;-73
2023/03/13 02:48:33;;;;;;;22.57;5.60;;;8.30;99.90;;;;;;5073628;28;20452;-73
2023/03/13 02:51:02;;;;;;;17.57;4.57;;;8.20;99.90;;;;;;5072108;28;20493;-73
2023/03/13 02:53:28;;;;;;;24.30;4.70;;;8.10;99.90;;;;;;5081123;28;21026;-73
2023/03/13 02:55:55;;;;;;;31.03;5.47;;;8.10;99.90;;;;;;5073349;28;20502;-73
2023/03/13 02:58:25;;;;;;;28.20;4.90;;;8.10;99.90;;;;;;5072655;28;20501;-73
2023/03/13 03:00:52;;;;;;;22.73;4.10;;;8.20;99.90;;;;;;5080826;28;20868;-73
2023/03/13 03:03:19;;;;;;;19.40;4.43;;;8.10;99.90;;;;;;5075194;28;20509;-73
2023/03/13 03:05:45;;;;;;;17.30;4.70;;;8.10;99.90;;;;;;5078066;28;20459;-73
2023/03/13 03:08:12;;;;;;;13.47;4.50;;;8.10;99.90;;;;;;5073194;28;20455;-73
2023/03/13 03:10:39;;;;;;;20.43;4.60;;;8.10;99.90;;;;;;5078279;28;20483;-73
2023/03/13 03:13:05;;;;;;;15.43;3.73;;;8.10;99.90;;;;;;5072273;28;20452;-73
2023/03/13 03:15:33;;;;;;;17.20;4.23;;;8.10;99.90;;;;;;5072685;28;20454;-73
2023/03/13 03:18:00;;;;;;;15.13;3.93;;;8.10;99.90;;;;;;5072542;28;20499;-73
2023/03/13 03:20:26;;;;;;;14.13;4.33;;;8.10;99.90;;;;;;5082279;28;20944;-73
2023/03/13 03:22:53;;;;;;;14.90;3.90;;;8.20;99.90;;;;;;5083166;28;20445;-73
2023/03/13 03:25:19;;;;;;;17.43;4.20;;;8.20;99.90;;;;;;5081347;28;20877;-73
2023/03/13 03:27:46;;;;;;;12.67;3.60;;;8.20;99.90;;;;;;5072668;28;20511;-73
2023/03/13 03:30:13;;;;;;;17.50;3.70;;;8.20;99.90;;;;;;5071306;28;20457;-73
2023/03/13 03:32:41;;;;;;;11.20;3.77;;;8.20;99.90;;;;;;5071771;28;20485;-73
2023/03/13 03:35:08;;;;;;;13.70;4.27;;;8.20;99.90;;;;;;5084009;28;20879;-73
2023/03/13 03:37:35;;;;;;;12.87;3.80;;;8.20;99.90;;;;;;5077008;28;20444;-73
2023/03/13 03:40:04;;;;;;;18.67;4.13;;;8.20;99.90;;;;;;5071518;28;20456;-73
2023/03/13 03:42:31;;;;;;;14.80;4.20;;;8.20;99.90;;;;;;5079644;28;20452;-73
2023/03/13 03:44:57;;;;;;;19.77;4.80;;;8.20;99.90;;;;;;5076149;28;20477;-73
2023/03/13 03:47:24;;;;;;;17.23;4.60;;;8.20;99.90;;;;;;5079620;27;20582;-73
2023/03/13 03:49:52;;;;;;;16.63;4.40;;;8.20;99.90;;;;;;5072325;28;20498;-73
2023/03/13 03:52:18;;;;;;;19.23;4.60;;;8.20;99.90;;;;;;5074988;28;20510;-73
2023/03/13 03:54:45;;;;;;;12.90;4.07;;;8.20;99.90;;;;;;5071017;28;21034;-73
2023/03/13 03:57:12;;;;;;;15.77;4.00;;;8.20;99.90;;;;;;5071978;28;20925;-74
2023/03/13 03:59:38;;;;;;;13.70;4.53;;;8.20;99.90;;;;;;5071643;28;20457;-73
2023/03/13 04:02:05;;;;;;;16.90;4.10;;;8.20;99.90;;;;;;5074331;28;20502;-73
2023/03/13 04:04:32;;;;;;;16.17;3.90;;;8.20;99.90;;;;;;5076176;28;20995;-73
2023/03/13 04:07:00;;;;;;;19.50;3.77;;;8.20;99.90;;;;;;5071126;28;20453;-73
2023/03/13 04:09:26;;;;;;;19.30;4.60;;;8.20;99.90;;;;;;5074214;28;20513;-73
2023/03/13 04:11:53;;;;;;;9.70;3.90;;;8.20;99.90;;;;;;5073743;28;20888;-73
2023/03/13 04:14:19;;;;;;;10.60;3.83;;;8.20;99.90;;;;;;5079638;28;20526;-73
2023/03/13 04:16:46;;;;;;;12.73;4.07;;;8.30;99.90;;;;;;5080082;28;20446;-73
2023/03/13 04:19:13;;;;;;;8.30;3.33;;;8.30;99.90;;;;;;5077525;28;20457;-73
2023/03/13 04:21:39;;;;;;;11.80;3.70;;;8.30;99.90;;;;;;5071008;28;20870;-73
2023/03/13 04:24:08;;;;;;;9.97;3.17;;;8.30;99.90;;;;;;5084416;28;20522;-73
2023/03/13 04:26:34;;;;;;;15.10;3.90;;;8.30;99.90;;;;;;5070712;28;20524;-73
2023/03/13 04:29:01;;;;;;;12.10;3.73;;;8.40;99.90;;;;;;5084626;28;20451;-73
2023/03/13 04:31:28;;;;;;;6.73;3.83;;;8.40;99.90;;;;;;5071047;28;20485;-73
2023/03/13 04:33:54;;;;;;;9.63;3.27;;;8.50;99.90;;;;;;5071512;28;20481;-73
2023/03/13 04:36:21;;;;;;;5.97;2.73;;;8.50;99.90;;;;;;5083086;28;20452;-73
2023/03/13 04:38:47;;;;;;;8.17;3.27;;;8.50;99.90;;;;;;5071084;28;20467;-73
2023/03/13 04:41:15;;;;;;;14.07;3.00;;;8.50;99.90;;;;;;5077444;28;20454;-73
2023/03/13 04:43:42;;;;;;;6.90;3.07;;;8.50;99.90;;;;;;5071486;28;20546;-73
2023/03/13 04:46:09;;;;;;;18.40;3.50;;;8.60;99.90;;;;;;5089099;28;20449;-73
2023/03/13 04:48:35;;;;;;;9.90;3.33;;;8.70;99.90;;;;;;5076054;28;20457;-73
2023/03/13 04:51:02;;;;;;;9.43;3.07;;;8.70;99.90;;;;;;5070599;28;20897;-73
2023/03/13 04:53:28;;;;;;;17.00;4.20;;;8.70;99.90;;;;;;5070028;28;20465;-73
2023/03/13 04:55:55;;;;;;;10.13;3.50;;;8.70;99.90;;;;;;5076564;28;20457;-73
2023/03/13 04:58:23;;;;;;;6.70;3.13;;;8.70;99.90;;;;;;5071438;28;20450;-73
2023/03/13 05:00:50;;;;;;;6.77;3.13;;;8.70;99.90;;;;;;5069582;28;20504;-73
2023/03/13 05:03:16;;;;;;;7.70;3.47;;;8.80;99.90;;;;;;5078017;28;20871;-73
2023/03/13 05:05:43;;;;;;;5.70;3.00;;;8.80;99.90;;;;;;5070780;28;20872;-73
2023/03/13 05:08:10;;;;;;;6.07;3.20;;;8.90;99.90;;;;;;5071967;28;20453;-73
2023/03/13 05:10:36;;;;;;;10.73;3.20;;;8.90;99.90;;;;;;5072675;28;20478;-73
2023/03/13 05:13:03;;;;;;;10.10;3.00;;;8.90;99.90;;;;;;5072321;28;20495;-73
2023/03/13 05:15:31;;;;;;;9.27;3.87;;;8.90;99.90;;;;;;5076080;28;20529;-73
2023/03/13 05:17:57;;;;;;;4.73;3.00;;;8.90;99.90;;;;;;5071189;28;20465;-73
2023/03/13 05:20:24;;;;;;;4.73;2.90;;;8.90;99.90;;;;;;5073450;28;20509;-73
2023/03/13 05:22:51;;;;;;;3.50;2.87;;;9.00;99.90;;;;;;5074740;28;20868;-73
2023/03/13 05:25:17;;;;;;;5.33;2.80;;;9.10;99.90;;;;;;5082067;28;20481;-73
2023/03/13 05:27:45;;;;;;;9.27;3.07;;;9.10;99.90;;;;;;5070271;28;20450;-73
2023/03/13 05:30:12;;;;;;;11.43;2.77;;;9.20;99.90;;;;;;5070083;28;21170;-73
2023/03/13 05:32:40;;;;;;;6.53;2.70;;;9.20;99.90;;;;;;5077923;28;20519;-74
2023/03/13 05:35:07;;;;;;;5.90;2.63;;;9.10;99.90;;;;;;5070638;28;21081;-73
2023/03/13 05:37:34;;;;;;;9.70;2.73;;;9.20;99.90;;;;;;5079202;28;20507;-73
2023/03/13 05:40:01;;;;;;;3.10;2.60;;;9.20;99.90;;;;;;5072795;28;20891;-73
2023/03/13 05:42:27;;;;;;;10.83;3.40;;;9.30;99.90;;;;;;5076526;28;20445;-73
2023/03/13 05:44:54;;;;;;;3.60;2.47;;;9.30;99.90;;;;;;5071547;28;20472;-73
2023/03/13 05:47:20;;;;;;;5.00;3.20;;;9.30;99.90;;;;;;5084736;28;20444;-73
2023/03/13 05:49:48;;;;;;;6.87;3.20;;;9.30;99.90;;;;;;5070275;28;20938;-73
2023/03/13 05:52:15;;;;;;;7.17;3.40;;;9.40;99.90;;;;;;5071656;28;20482;-73
2023/03/13 05:54:42;;;;;;;4.57;3.20;;;9.40;99.90;;;;;;5074731;28;20541;-73
2023/03/13 05:57:08;;;;;;;7.00;3.40;;;9.40;99.90;;;;;;5074131;28;20457;-73
2023/03/13 05:59:35;;;;;;;11.80;3.40;;;9.40;99.90;;;;;;5076331;28;20453;-73
2023/03/13 06:02:02;;;;;;;6.70;4.10;;;9.50;99.90;;;;;;5083173;28;20454;-73
2023/03/13 06:04:28;;;;;;;16.37;9.17;;;9.50;99.90;;;;;;5081980;28;20903;-74
2023/03/13 06:06:56;;;;;;;21.80;10.77;;;9.30;99.90;;;;;;5081423;28;20967;-74
2023/03/13 06:09:23;;;;;;;21.27;11.40;;;9.10;99.90;;;;;;5073745;28;20485;-74
2023/03/13 06:11:50;;;;;;;23.80;10.63;;;8.90;99.90;;;;;;5076792;28;20487;-74
2023/03/13 06:14:16;;;;;;;14.90;8.80;;;8.80;99.90;;;;;;5073027;28;20992;-73
2023/03/13 06:16:43;;;;;;;10.93;6.97;;;8.80;99.90;;;;;;5074382;28;20500;-73
2023/03/13 06:19:10;;;;;;;8.40;4.90;;;8.80;99.90;;;;;;5082150;28;20464;-74
2023/03/13 06:21:37;;;;;;;10.50;4.00;;;8.90;99.90;;;;;;5097415;28;20466;-78
2023/03/13 06:24:06;;;;;;;13.17;4.10;;;9.10;99.90;;;;;;5078220;28;20477;-76
2023/03/13 06:26:32;;;;;;;6.33;3.73;;;9.10;99.90;;;;;;5074227;28;20512;-75
2023/03/13 06:28:59;;;;;;;9.10;3.70;;;9.20;99.90;;;;;;5074070;28;20453;-76
2023/03/13 06:31:26;;;;;;;4.13;3.50;;;9.30;99.90;;;;;;5077951;28;20537;-75
2023/03/13 06:33:54;;;;;;;6.50;3.40;;;9.30;99.90;;;;;;5090355;28;20527;-75
2023/03/13 06:36:20;;;;;;;6.47;3.30;;;9.50;99.90;;;;;;5082311;28;20975;-76
2023/03/13 06:38:47;;;;;;;5.00;3.23;;;9.50;99.90;;;;;;5094532;28;20459;-75
2023/03/13 06:41:15;;;;;;;7.90;3.40;;;9.60;99.90;;;;;;5078669;28;20446;-74
2023/03/13 06:43:42;;;;;;;5.20;3.60;;;9.60;99.90;;;;;;5073646;28;20462;-75
2023/03/13 06:46:14;;;;;;;5.33;3.50;;;9.70;99.90;;;;;;5073695;28;20454;-75
2023/03/13 06:48:41;;;;;;;3.80;3.47;;;9.70;99.90;;;;;;5078275;28;20454;-75
2023/03/13 06:51:11;;;;;;;4.60;3.20;;;9.70;99.90;;;;;;5073083;28;20496;-75
2023/03/13 06:53:37;;;;;;;3.80;3.50;;;9.80;99.90;;;;;;5073245;28;20497;-74
2023/03/13 06:56:05;;;;;;;4.50;3.50;;;9.80;99.90;;;;;;5077483;28;20455;-74
2023/03/13 06:58:33;;;;;;;4.50;3.43;;;9.80;99.90;;;;;;5084715;28;20450;-75
2023/03/13 07:01:00;;;;;;;4.83;3.63;;;9.80;99.90;;;;;;5075619;28;20467;-75
2023/03/13 07:03:27;;;;;;;4.00;3.70;;;9.90;99.90;;;;;;5079406;28;20578;-75
2023/03/13 07:05:56;;;;;;;3.43;3.13;;;9.90;99.90;;;;;;5072666;28;20503;-77
2023/03/13 07:08:24;;;;;;;4.53;3.50;;;9.90;99.90;;;;;;5073766;28;21002;-75
2023/03/13 07:10:51;;;;;;;6.17;3.90;;;9.90;99.90;;;;;;5076730;28;20566;-75
2023/03/13 07:13:20;;;;;;;4.53;3.30;;;9.90;99.90;;;;;;5076544;28;20530;-75
2023/03/13 07:15:48;;;;;;;4.77;3.70;;;10.00;99.90;;;;;;5077356;28;20470;-69
2023/03/13 07:18:15;;;;;;;5.63;3.20;;;10.10;99.90;;;;;;5078718;28;20504;-68
2023/03/13 07:20:41;;;;;;;3.93;3.00;;;10.30;99.90;;;;;;5078260;28;20455;-68
2023/03/13 07:23:08;;;;;;;3.50;3.20;;;10.40;99.90;;;;;;5072489;28;21121;-69
2023/03/13 07:25:35;;;;;;;4.47;2.87;;;10.50;99.90;;;;;;5087427;28;20455;-69
2023/03/13 07:28:01;;;;;;;3.10;2.60;;;10.50;99.90;;;;;;5075385;28;20450;-75
2023/03/13 07:30:28;;;;;;;4.23;3.33;;;10.50;99.90;;;;;;5078349;28;20458;-75
2023/03/13 07:32:58;;;;;;;3.50;3.03;;;10.50;99.90;;;;;;5076299;28;20551;-75
2023/03/13 07:35:24;;;;;;;3.20;2.90;;;10.50;99.90;;;;;;5076247;28;20528;-75
2023/03/13 07:37:52;;;;;;;6.57;3.17;;;10.50;99.90;;;;;;5076704;28;21153;-74
2023/03/13 07:40:18;;;;;;;7.50;3.20;;;10.50;99.90;;;;;;5077211;28;20951;-75
2023/03/13 07:42:45;;;;;;;5.13;3.33;;;10.60;99.90;;;;;;5072783;28;20496;-75
2023/03/13 07:45:12;;;;;;;3.13;2.23;;;10.60;99.90;;;;;;5073076;28;20896;-76
2023/03/13 07:47:38;;;;;;;2.40;2.20;;;10.70;99.90;;;;;;5078728;28;20458;-75
2023/03/13 07:50:07;;;;;;;4.70;2.53;;;10.90;99.90;;;;;;5082894;28;20451;-76
2023/03/13 07:52:34;;;;;;;2.47;2.27;;;11.00;99.90;;;;;;5078242;28;20485;-77
2023/03/13 07:55:01;;;;;;;2.23;2.13;;;11.00;99.90;;;;;;5073009;28;20484;-75
2023/03/13 07:57:27;;;;;;;2.03;1.90;;;11.10;99.90;;;;;;5074553;28;20456;-75
2023/03/13 07:59:54;;;;;;;2.80;2.07;;;11.20;99.90;;;;;;5078303;28;20513;-74
2023/03/13 08:02:21;;;;;;;2.73;2.00;;;11.20;99.90;;;;;;5081480;28;20440;-75
2023/03/13 08:04:51;;;;;;;2.00;1.90;;;11.30;99.90;;;;;;5076091;28;20473;-74
2023/03/13 08:07:19;;;;;;;1.90;1.80;;;11.40;99.90;;;;;;5074324;28;20500;-74
2023/03/13 08:09:45;;;;;;;1.97;1.87;;;11.50;99.90;;;;;;5076470;28;20537;-75
2023/03/13 08:12:12;;;;;;;6.80;2.33;;;11.60;99.90;;;;;;5078872;28;20449;-76
2023/03/13 08:14:39;;;;;;;3.23;2.27;;;11.60;99.90;;;;;;5076381;28;20541;-74
2023/03/13 08:17:05;;;;;;;3.10;2.40;;;11.60;99.90;;;;;;5072057;28;20460;-74
2023/03/13 08:19:32;;;;;;;3.20;2.87;;;11.60;99.90;;;;;;5079094;28;21004;-74
2023/03/13 08:21:59;;;;;;;4.33;2.87;;;11.70;99.90;;;;;;5079446;28;21002;-73
2023/03/13 08:24:27;;;;;;;3.30;3.00;;;11.70;99.90;;;;;;5092093;28;20535;-74
2023/03/13 08:26:53;;;;;;;4.73;3.20;;;11.70;99.90;;;;;;5071212;28;20498;-73
2023/03/13 08:29:20;;;;;;;3.53;2.93;;;11.60;99.90;;;;;;5070834;28;20519;-75
2023/03/13 08:31:48;;;;;;;3.33;3.10;;;11.60;99.90;;;;;;5081019;28;20450;-74
2023/03/13 08:34:16;;;;;;;8.30;2.60;;;11.60;99.90;;;;;;5071412;28;20611;-74
2023/03/13 08:36:43;;;;;;;3.50;3.20;;;11.60;99.90;;;;;;5070839;28;20447;-74
2023/03/13 08:39:12;;;;;;;3.10;2.90;;;11.60;99.90;;;;;;5074575;28;20832;-74
2023/03/13 08:41:40;;;;;;;3.90;3.60;;;11.70;99.90;;;;;;5070817;28;20457;-74
2023/03/13 08:44:08;;;;;;;4.63;3.30;;;11.70;99.90;;;;;;5070626;28;20477;-77
2023/03/13 08:46:36;;;;;;;3.07;2.80;;;11.60;99.90;;;;;;5096411;28;20502;-75
2023/03/13 08:49:04;;;;;;;3.90;2.97;;;11.70;99.90;;;;;;5076699;28;20958;-76
2023/03/13 08:51:31;;;;;;;3.30;2.80;;;11.70;99.90;;;;;;5071417;28;20517;-76
2023/03/13 08:53:57;;;;;;;3.07;2.87;;;11.70;99.90;;;;;;5070981;28;20530;-79
2023/03/13 08:56:26;;;;;;;10.63;3.00;;;11.70;99.90;;;;;;5076969;28;20512;-75
2023/03/13 08:58:56;;;;;;;4.43;3.07;;;11.80;99.90;;;;;;5073597;28;20455;-76
2023/03/13 09:01:24;;;;;;;6.40;3.37;;;11.70;99.90;;;;;;5073855;28;20520;-75
2023/03/13 09:03:51;;;;;;;3.23;2.93;;;11.70;99.90;;;;;;5078888;28;20836;-76
2023/03/13 09:06:18;;;;;;;4.77;3.10;;;11.70;99.90;;;;;;5077939;28;20551;-75
2023/03/13 09:08:45;;;;;;;4.10;3.23;;;11.70;99.90;;;;;;5084992;28;20450;-75
2023/03/13 09:11:14;;;;;;;7.13;3.00;;;11.80;99.90;;;;;;5074445;28;20779;-76
2023/03/13 09:13:43;;;;;;;4.10;2.60;;;11.90;99.90;;;;;;5083866;28;20512;-76
2023/03/13 09:16:13;;;;;;;5.37;2.90;;;11.90;99.90;;;;;;5081554;28;20456;-76
2023/03/13 09:18:41;;;;;;;3.60;2.70;;;12.00;99.90;;;;;;5071533;28;20509;-76
2023/03/13 09:21:10;;;;;;;3.40;2.80;;;12.10;99.90;;;;;;5070742;28;20809;-76
2023/03/13 09:23:36;;;;;;;3.27;2.80;;;12.30;99.90;;;;;;5087036;28;20478;-75
2023/03/13 09:26:03;;;;;;;6.30;2.60;;;12.50;99.90;;;;;;5076543;28;20459;-75
2023/03/13 09:28:30;;;;;;;2.47;2.30;;;12.70;99.90;;;;;;5087295;28;20551;-75
2023/03/13 09:31:07;;;;;;;5.93;2.33;;;12.90;99.90;;;;;;5086434;28;20450;-76
2023/03/13 09:33:35;;;;;;;3.93;2.50;;;13.00;99.90;;;;;;5075074;28;20490;-76
2023/03/13 09:36:01;;;;;;;2.40;2.30;;;13.10;99.90;;;;;;5073962;28;20501;-78
2023/03/13 09:38:28;;;;;;;4.40;2.23;;;13.20;99.90;;;;;;5074931;28;20517;-76
2023/03/13 09:40:55;;;;;;;5.17;2.40;;;13.30;99.90;;;;;;5080095;28;20508;-76
2023/03/13 09:43:34;;;;;;;4.23;2.53;;;13.40;99.90;;;;;;5075057;28;20441;-76
2023/03/13 09:46:05;;;;;;;2.70;2.17;;;13.40;99.90;;;;;;5079382;28;20507;-76
2023/03/13 09:48:37;;;;;;;2.57;2.37;;;13.40;99.90;;;;;;5074718;28;21013;-76
2023/03/13 09:51:11;;;;;;;6.20;2.90;;;13.40;99.90;;;;;;5074684;28;20505;-75
2023/03/13 09:53:43;;;;;;;4.27;2.47;;;13.50;99.90;;;;;;5074796;28;21059;-75
2023/03/13 09:56:16;;;;;;;3.57;2.90;;;13.50;99.90;;;;;;5087234;28;20508;-76
2023/03/13 09:58:49;;;;;;;6.60;2.83;;;13.60;99.90;;;;;;5074545;28;20517;-79
2023/03/13 10:01:19;;;;;;;6.27;2.70;;;13.60;99.90;;;;;;5077575;28;20463;-76
2023/03/13 10:03:58;;;;;;;3.50;3.20;;;13.70;99.90;;;;;;5080002;28;21053;-76
2023/03/13 10:06:27;;;;;;;2.70;2.43;;;13.70;99.90;;;;;;5074745;28;20452;-76
2023/03/13 10:08:56;;;;;;;4.03;2.77;;;13.60;99.90;;;;;;5074284;28;20507;-77
2023/03/13 10:11:27;;;;;;;4.03;2.87;;;13.60;99.90;;;;;;5074044;28;20529;-76
2023/03/13 10:14:01;;;;;;;6.93;3.17;;;13.70;99.90;;;;;;5074474;28;20495;-77
2023/03/13 10:16:32;;;;;;;5.13;2.97;;;13.70;99.90;;;;;;5074774;28;20509;-75
2023/03/13 10:19:10;;;;;;;6.63;2.80;;;13.80;99.90;;;;;;5074464;28;20423;-76
2023/03/13 10:21:38;;;;;;;8.37;3.60;;;13.70;99.90;;;;;;5074379;28;20502;-76
2023/03/13 10:24:14;;;;;;;7.27;3.20;;;13.60;99.90;;;;;;5090257;28;20470;-79
2023/03/13 10:26:41;;;;;;;4.03;3.00;;;13.60;99.90;;;;;;5074354;28;20452;-76
2023/03/13 10:29:20;;;;;;;8.20;3.47;;;13.70;99.90;;;;;;5073578;28;20459;-76
2023/03/13 10:31:55;;;;;;;4.00;2.93;;;13.80;99.90;;;;;;5075572;28;20461;-75
2023/03/13 10:34:25;;;;;;;4.50;3.10;;;13.80;99.90;;;;;;5072975;28;20935;-76
2023/03/13 10:36:56;;;;;;;4.93;3.57;;;13.80;99.90;;;;;;5074124;28;21005;-76
2023/03/13 10:39:24;;;;;;;7.30;3.70;;;13.70;99.90;;;;;;5076178;28;20446;-79
2023/03/13 10:41:58;;;;;;;5.07;2.93;;;13.70;99.90;;;;;;5085919;28;20927;-79
2023/03/13 10:44:31;;;;;;;5.53;2.77;;;13.70;99.90;;;;;;5073354;28;20525;-75
2023/03/13 10:47:00;;;;;;;4.33;2.83;;;13.60;99.90;;;;;;5077098;28;20460;-76
2023/03/13 10:49:29;;;;;;;8.00;2.53;;;13.70;99.90;;;;;;5073698;28;20465;-76
2023/03/13 10:51:57;;;;;;;4.07;2.90;;;13.70;99.90;;;;;;5073913;28;20513;-75
2023/03/13 10:54:25;;;;;;;2.60;2.40;;;13.70;99.90;;;;;;5073294;28;20918;-75
2023/03/13 10:56:54;;;;;;;3.80;2.70;;;13.70;99.90;;;;;;5074775;28;20452;-75
2023/03/13 10:59:24;;;;;;;2.87;2.67;;;13.60;99.90;;;;;;5074738;28;20502;-74
2023/03/13 11:01:52;;;;;;;6.57;2.93;;;13.60;99.90;;;;;;5093180;28;20465;-76
2023/03/13 11:04:20;;;;;;;3.23;2.80;;;13.60;99.90;;;;;;5075795;28;20468;-78
2023/03/13 11:06:52;;;;;;;4.90;2.70;;;13.50;99.90;;;;;;5078885;28;21031;-75
2023/03/13 11:09:19;;;;;;;3.13;2.77;;;13.50;99.90;;;;;;5073004;28;20459;-80
2023/03/13 11:11:48;;;;;;;2.80;2.60;;;13.60;99.90;;;;;;5075539;28;20468;-74
2023/03/13 11:14:17;;;;;;;2.60;2.40;;;13.60;99.90;;;;;;5082630;28;20471;-73
2023/03/13 11:16:49;;;;;;;4.87;2.47;;;13.60;99.90;;;;;;5078726;28;20473;-73
2023/03/13 11:19:47;;;;;;;3.90;3.00;;;13.70;99.90;;;;;;5072837;28;20452;-75
2023/03/13 11:22:25;;;;;;;2.80;2.60;;;13.80;99.90;;;;;;5074361;28;20864;-73
2023/03/13 11:25:02;;;;;;;3.27;2.97;;;13.80;99.90;;;;;;5078225;28;20984;-74
2023/03/13 11:27:35;;;;;;;3.20;3.00;;;13.80;99.90;;;;;;5072345;28;20513;-74
2023/03/13 11:30:16;;;;;;;4.23;3.33;;;13.80;99.90;;;;;;5071912;28;20434;-74
2023/03/13 11:32:46;;;;;;;3.73;3.43;;;13.70;99.90;;;;;;5074803;28;20456;-75
2023/03/13 11:35:26;;;;;;;3.90;3.50;;;13.60;99.90;;;;;;5079420;28;20503;-73
2023/03/13 11:37:56;;;;;;;5.17;3.73;;;13.60;99.90;;;;;;5075521;28;20892;-73
2023/03/13 11:40:31;;;;;;;4.33;3.93;;;13.50;99.90;;;;;;5080812;28;20447;-74
2023/03/13 11:43:09;;;;;;;6.03;3.60;;;13.40;99.90;;;;;;5083994;28;20512;-74
2023/03/13 11:45:54;;;;;;;6.80;3.37;;;13.40;99.90;;;;;;5075894;28;20456;-73
2023/03/13 11:48:54;;;;;;;6.00;3.57;;;13.30;99.90;;;;;;5071611;28;20861;-73
2023/03/13 11:51:28;;;;;;;5.90;3.50;;;13.40;99.90;;;;;;5084034;28;21009;-78
2023/03/13 11:54:36;;;;;;;4.20;3.90;;;13.40;99.90;;;;;;5079096;28;20540;-74
2023/03/13 11:57:11;;;;;;;3.83;3.17;;;13.40;99.90;;;;;;5080550;28;20470;-74
2023/03/13 11:59:48;;;;;;;2.60;2.40;;;13.40;99.90;;;;;;5080066;28;20455;-75
2023/03/13 12:02:23;;;;;;;1.90;1.80;;;13.30;99.90;;;;;;5075586;28;20865;-74
2023/03/13 12:04:54;;;;;;;2.30;2.10;;;13.30;99.90;;;;;;5084149;28;20986;-74
2023/03/13 12:07:27;;;;;;;2.67;2.47;;;13.40;99.90;;;;;;5073606;28;20453;-76
2023/03/13 12:09:59;;;;;;;6.00;2.23;;;13.40;99.90;;;;;;5080845;28;20547;-74
2023/03/13 12:12:35;;;;;;;3.07;2.40;;;13.40;99.90;;;;;;5074593;28;20456;-74
2023/03/13 12:15:14;;;;;;;2.20;2.10;;;13.40;99.90;;;;;;5076202;28;20556;-74
2023/03/13 12:17:46;;;;;;;2.13;2.03;;;13.40;99.90;;;;;;5071804;28;20453;-77
2023/03/13 12:20:19;;;;;;;2.43;2.30;;;13.40;99.90;;;;;;5075202;28;20565;-74
2023/03/13 12:22:51;;;;;;;2.57;2.40;;;13.30;99.90;;;;;;5072096;28;20456;-74
2023/03/13 12:25:23;;;;;;;2.67;2.50;;;13.30;99.90;;;;;;5088402;28;20505;-74
2023/03/13 12:27:54;;;;;;;2.20;2.10;;;13.30;99.90;;;;;;5071824;28;20852;-74
2023/03/13 12:30:30;;;;;;;2.37;2.17;;;13.30;99.90;;;;;;5081868;28;20455;-74
2023/03/13 12:33:04;;;;;;;2.50;2.30;;;13.30;99.90;;;;;;5075045;28;20613;-75
2023/03/13 12:35:33;;;;;;;2.37;2.17;;;13.30;99.90;;;;;;5079497;28;20542;-74
2023/03/13 12:38:06;;;;;;;5.20;2.80;;;13.30;99.90;;;;;;5078615;28;20477;-74
2023/03/13 12:40:41;;;;;;;2.27;2.13;;;13.30;99.90;;;;;;5080183;28;20455;-74
2023/03/13 12:43:14;;;;;;;2.83;2.63;;;13.30;99.90;;;;;;5083589;28;20444;-74
2023/03/13 12:45:55;;;;;;;2.47;2.37;;;13.30;99.90;;;;;;5086843;28;20508;-78
2023/03/13 12:48:40;;;;;;;3.27;3.00;;;13.20;99.90;;;;;;5089874;28;20486;-74
2023/03/13 12:51:20;;;;;;;3.20;2.80;;;13.20;99.90;;;;;;5080118;28;20517;-75
2023/03/13 12:54:10;;;;;;;4.53;3.77;;;13.30;99.90;;;;;;5072324;28;20990;-76
2023/03/13 12:56:54;;;;;;;5.80;3.07;;;13.30;99.90;;;;;;5072802;28;20452;-75
2023/03/13 12:59:23;;;;;;;3.70;3.40;;;13.30;99.90;;;;;;5070557;28;20452;-74